Time;durP1;ratioP1;P1;durP2;ratioP2;P2;SDS_P1;SDS_P2;PMS_P1;PMS_P2;Temp;Humidity;BMP_temperature;BMP_pressure;BME280_temperature;BME280_humidity;BME280_pressure;Samples;Min_cycle;Max_cycle;Signal;HPM_P1;HPM_P2
2022/01/11 00:00:10;;;;;;;12.23;9.17;;;7.20;96.00;;;;;;5073525;28;20295;-76
2022/01/11 00:02:40;;;;;;;9.00;8.10;;;7.20;99.00;;;;;;5073659;28;20202;-75
2022/01/11 00:05:08;;;;;;;10.50;9.40;;;7.10;84.80;;;;;;5073100;28;20209;-74
2022/01/11 00:07:36;;;;;;;9.37;8.33;;;7.10;80.10;;;;;;5073698;28;20198;-75
2022/01/11 00:10:06;;;;;;;9.00;8.10;;;7.00;90.80;;;;;;5072972;28;20206;-74
2022/01/11 00:12:35;;;;;;;10.87;8.47;;;7.00;99.90;;;;;;5073580;28;20202;-75
2022/01/11 00:15:02;;;;;;;8.83;7.90;;;6.90;99.90;;;;;;5072807;28;20259;-74
2022/01/11 00:17:29;;;;;;;9.83;7.87;;;6.80;99.90;;;;;;5073455;28;20205;-74
2022/01/11 00:19:55;;;;;;;11.00;8.00;;;6.80;99.90;;;;;;5072796;28;20228;-75
2022/01/11 00:22:29;;;;;;;11.50;8.27;;;6.80;99.90;;;;;;5073426;28;20583;-76
2022/01/11 00:24:55;;;;;;;9.87;7.93;;;6.70;99.90;;;;;;5073238;28;20206;-76
2022/01/11 00:27:22;;;;;;;11.10;8.63;;;6.60;99.90;;;;;;5073377;28;20206;-75
2022/01/11 00:29:52;;;;;;;10.50;8.73;;;6.60;99.90;;;;;;5073179;28;20202;-75
2022/01/11 00:32:29;;;;;;;10.13;7.33;;;6.60;99.90;;;;;;5072784;28;20210;-75
2022/01/11 00:34:56;;;;;;;11.17;8.83;;;6.50;1.00;;;;;;5073145;28;20201;-74
2022/01/11 00:37:23;;;;;;;9.27;7.53;;;6.50;1.00;;;;;;5073049;28;20203;-75
2022/01/11 00:39:52;;;;;;;8.03;7.23;;;6.40;1.00;;;;;;5073203;28;20201;-74
2022/01/11 00:42:21;;;;;;;10.57;6.80;;;6.30;1.00;;;;;;5072380;28;20264;-73
2022/01/11 00:44:49;;;;;;;8.30;6.50;;;6.20;1.00;;;;;;5072750;28;20732;-73
2022/01/11 00:47:16;;;;;;;9.53;6.70;;;6.20;1.00;;;;;;5072556;28;20210;-73
2022/01/11 00:49:44;;;;;;;7.67;6.73;;;6.10;1.00;;;;;;5072649;28;20206;-73
2022/01/11 00:52:11;;;;;;;8.27;6.37;;;6.10;1.00;;;;;;5072216;28;20202;-73
2022/01/11 00:54:38;;;;;;;7.87;6.80;;;6.00;1.00;;;;;;5072421;28;20260;-72
2022/01/11 00:57:05;;;;;;;9.47;6.77;;;5.90;1.00;;;;;;5072183;28;20202;-71
2022/01/11 00:59:32;;;;;;;10.50;7.03;;;5.90;1.00;;;;;;5072431;28;20197;-70
2022/01/11 01:02:00;;;;;;;9.93;6.63;;;5.80;1.00;;;;;;5072186;28;20287;-70
2022/01/11 01:04:27;;;;;;;10.13;7.13;;;5.80;1.00;;;;;;5072656;28;20206;-77
2022/01/11 01:06:55;;;;;;;8.77;6.67;;;5.80;1.00;;;;;;5072427;28;20198;-69
2022/01/11 01:09:24;;;;;;;12.50;8.90;;;5.80;1.00;;;;;;5072191;28;20206;-70
2022/01/11 01:11:51;;;;;;;12.23;8.83;;;5.80;1.00;;;;;;5072571;28;20292;-69
2022/01/11 01:14:18;;;;;;;13.17;7.77;;;5.80;1.00;;;;;;5072012;28;20289;-71
2022/01/11 01:16:45;;;;;;;9.00;7.07;;;5.80;1.00;;;;;;5072135;28;20207;-71
2022/01/11 01:19:13;;;;;;;9.67;6.90;;;5.80;1.00;;;;;;5071797;28;20202;-71
2022/01/11 01:21:40;;;;;;;12.57;8.10;;;5.80;1.00;;;;;;5071600;28;20367;-69
2022/01/11 01:24:10;;;;;;;13.43;10.13;;;5.80;1.00;;;;;;5071740;28;20264;-74
2022/01/11 01:26:37;;;;;;;10.17;8.13;;;5.70;1.00;;;;;;5072223;28;20199;-74
2022/01/11 01:29:04;;;;;;;8.37;7.33;;;5.70;1.00;;;;;;5071547;28;20670;-73
2022/01/11 01:31:31;;;;;;;9.90;7.67;;;5.70;1.00;;;;;;5071177;28;20251;-74
2022/01/11 01:33:58;;;;;;;9.80;8.27;;;5.60;1.00;;;;;;5071485;28;20206;-72
2022/01/11 01:36:27;;;;;;;11.70;8.00;;;5.60;1.00;;;;;;5071528;28;20206;-73
2022/01/11 01:38:54;;;;;;;11.43;8.50;;;5.50;1.00;;;;;;5077051;28;20214;-72
2022/01/11 01:41:22;;;;;;;9.60;7.63;;;5.50;1.00;;;;;;5071734;28;20241;-73
2022/01/11 01:43:52;;;;;;;9.83;7.13;;;5.40;1.00;;;;;;5071761;28;20210;-72
2022/01/11 01:46:20;;;;;;;9.53;7.90;;;5.40;1.00;;;;;;5071358;28;20297;-72
2022/01/11 01:48:47;;;;;;;12.90;7.47;;;5.40;1.00;;;;;;5071580;28;20197;-73
2022/01/11 01:51:15;;;;;;;8.33;7.17;;;5.40;1.00;;;;;;5071238;28;20210;-74
2022/01/11 01:53:46;;;;;;;9.87;6.83;;;5.40;1.00;;;;;;5071880;28;20210;-73
2022/01/11 01:56:13;;;;;;;9.87;6.90;;;5.30;1.00;;;;;;5071175;28;20236;-74
2022/01/11 01:58:42;;;;;;;10.03;7.33;;;5.20;1.00;;;;;;5071308;28;20210;-72
2022/01/11 02:01:12;;;;;;;8.57;6.83;;;5.20;1.00;;;;;;5070827;28;20271;-70
2022/01/11 02:03:40;;;;;;;11.00;7.50;;;5.10;1.00;;;;;;5071302;28;20558;-71
2022/01/11 02:06:08;;;;;;;9.87;7.93;;;5.10;1.00;;;;;;5070949;28;20305;-70
2022/01/11 02:08:36;;;;;;;9.13;7.33;;;5.10;1.00;;;;;;5071360;28;20198;-72
2022/01/11 02:11:04;;;;;;;11.67;8.27;;;5.00;1.00;;;;;;5070740;28;20267;-72
2022/01/11 02:13:31;;;;;;;13.73;8.63;;;5.00;1.00;;;;;;5071184;28;20198;-74
2022/01/11 02:15:59;;;;;;;10.27;7.97;;;4.90;1.00;;;;;;5070661;28;20202;-72
2022/01/11 02:18:27;;;;;;;11.37;7.63;;;4.80;1.00;;;;;;5070837;28;20202;-72
2022/01/11 02:20:58;;;;;;;8.70;7.37;;;4.80;1.00;;;;;;5071322;28;20657;-75
2022/01/11 02:23:27;;;;;;;12.23;8.23;;;4.50;1.00;;;;;;5070933;28;20198;-72
2022/01/11 02:25:55;;;;;;;11.30;8.40;;;4.80;1.00;;;;;;5071156;28;20292;-72
2022/01/11 02:28:25;;;;;;;11.33;7.70;;;4.90;1.00;;;;;;5071044;28;20210;-71
2022/01/11 02:30:53;;;;;;;16.73;9.17;;;4.80;1.00;;;;;;5071527;28;20202;-73
2022/01/11 02:33:33;;;;;;;9.80;8.07;;;4.80;1.00;;;;;;5070414;28;20206;-73
2022/01/11 02:36:02;;;;;;;12.83;10.17;;;4.70;1.00;;;;;;5070424;28;20292;-71
2022/01/11 02:38:29;;;;;;;9.37;8.23;;;4.70;1.00;;;;;;5070978;28;20206;-71
2022/01/11 02:40:57;;;;;;;13.07;9.77;;;4.60;1.00;;;;;;5070714;28;20198;-71
2022/01/11 02:43:24;;;;;;;13.40;9.30;;;4.60;1.00;;;;;;5070702;28;20719;-73
2022/01/11 02:45:51;;;;;;;13.33;9.33;;;4.60;1.00;;;;;;5071098;28;20338;-72
2022/01/11 02:48:19;;;;;;;12.73;10.53;;;4.70;1.00;;;;;;5070501;28;20251;-72
2022/01/11 02:50:46;;;;;;;18.87;10.60;;;4.90;99.90;;;;;;5070824;28;20202;-76
2022/01/11 02:53:15;;;;;;;20.07;11.53;;;5.10;99.90;;;;;;5070242;28;20207;-75
2022/01/11 02:55:43;;;;;;;15.83;10.37;;;5.30;1.00;;;;;;5070738;28;20202;-74
2022/01/11 02:58:10;;;;;;;20.57;10.87;;;5.50;1.00;;;;;;5070452;28;20209;-74
2022/01/11 03:00:38;;;;;;;28.93;12.47;;;5.60;1.00;;;;;;5070884;28;20202;-74
2022/01/11 03:03:13;;;;;;;32.00;12.93;;;5.70;99.90;;;;;;5070114;28;20241;-74
2022/01/11 03:05:47;;;;;;;22.63;11.03;;;5.70;1.00;;;;;;5070642;28;20688;-74
2022/01/11 03:08:17;;;;;;;23.23;11.67;;;5.70;1.00;;;;;;5070286;28;20293;-74
2022/01/11 03:10:45;;;;;;;20.50;10.50;;;5.70;1.00;;;;;;5070634;28;20275;-74
2022/01/11 03:13:14;;;;;;;34.87;13.33;;;5.80;99.90;;;;;;5070287;28;20210;-72
2022/01/11 03:15:41;;;;;;;40.50;12.03;;;5.80;99.90;;;;;;5070686;28;20202;-72
2022/01/11 03:18:08;;;;;;;26.90;9.93;;;5.80;99.90;;;;;;5070061;28;20206;-73
2022/01/11 03:20:37;;;;;;;27.70;10.67;;;5.80;1.00;;;;;;5070380;28;20259;-73
2022/01/11 03:23:05;;;;;;;20.93;10.50;;;6.10;1.00;;;;;;5069960;28;20721;-72
2022/01/11 03:25:34;;;;;;;16.47;9.87;;;5.80;99.90;;;;;;5070656;28;20236;-73
2022/01/11 03:28:01;;;;;;;26.20;10.47;;;5.90;1.00;;;;;;5069969;28;20198;-73
2022/01/11 03:30:28;;;;;;;27.63;11.57;;;5.90;1.00;;;;;;5070388;28;20255;-72
2022/01/11 03:32:55;;;;;;;20.67;9.50;;;6.00;1.00;;;;;;5070230;28;20206;-71
2022/01/11 03:35:23;;;;;;;19.13;9.10;;;6.10;1.00;;;;;;5070628;28;20228;-72
2022/01/11 03:37:51;;;;;;;29.90;10.17;;;6.20;19.10;;;;;;5070642;28;20688;-73
2022/01/11 03:40:22;;;;;;;30.27;10.13;;;6.20;1.00;;;;;;5069990;28;20674;-74
2022/01/11 03:42:50;;;;;;;34.07;12.13;;;6.10;1.00;;;;;;5069883;28;20721;-73
2022/01/11 03:45:20;;;;;;;36.10;11.97;;;6.10;1.00;;;;;;5069784;28;20982;-73
2022/01/11 03:47:47;;;;;;;32.33;10.40;;;6.10;1.00;;;;;;5069732;28;20198;-75
2022/01/11 03:50:14;;;;;;;20.13;11.50;;;6.10;1.00;;;;;;5069874;28;20263;-73
2022/01/11 03:52:43;;;;;;;18.40;11.13;;;6.20;1.00;;;;;;5070206;28;20747;-73
2022/01/11 03:55:15;;;;;;;21.80;10.97;;;6.30;1.00;;;;;;5071897;28;20210;-73
2022/01/11 03:57:42;;;;;;;15.00;9.83;;;6.30;1.00;;;;;;5073783;28;20293;-72
2022/01/11 04:00:14;;;;;;;24.83;10.73;;;6.30;1.00;;;;;;5073069;28;20205;-72
2022/01/11 04:02:42;;;;;;;16.73;9.63;;;6.30;1.00;;;;;;5073593;28;20283;-73
2022/01/11 04:05:12;;;;;;;16.13;9.00;;;6.30;99.90;;;;;;5073273;28;20206;-73
2022/01/11 04:07:40;;;;;;;11.87;8.33;;;6.30;99.90;;;;;;5073675;28;20665;-72
2022/01/11 04:10:08;;;;;;;16.00;9.10;;;6.30;1.00;;;;;;5073150;28;20198;-73
2022/01/11 04:12:36;;;;;;;13.43;8.57;;;6.30;99.90;;;;;;5073536;28;20275;-73
2022/01/11 04:15:03;;;;;;;15.37;9.37;;;6.30;1.00;;;;;;5072934;28;20256;-72
2022/01/11 04:17:32;;;;;;;15.37;9.43;;;6.40;1.00;;;;;;5073552;28;20206;-72
2022/01/11 04:19:59;;;;;;;12.20;8.70;;;6.40;1.00;;;;;;5072924;28;20255;-72
2022/01/11 04:22:26;;;;;;;16.10;8.83;;;6.50;1.00;;;;;;5073185;28;20303;-73
2022/01/11 04:24:53;;;;;;;16.80;8.70;;;6.60;1.00;;;;;;5073615;28;20202;-73
2022/01/11 04:27:20;;;;;;;14.67;9.50;;;6.50;1.00;;;;;;5072856;28;20202;-72
2022/01/11 04:29:47;;;;;;;13.93;8.27;;;6.50;88.60;;;;;;5073177;28;20206;-72
2022/01/11 04:32:14;;;;;;;14.90;9.87;;;6.50;1.00;;;;;;5072866;28;20264;-72
2022/01/11 04:34:42;;;;;;;12.87;7.83;;;6.50;1.00;;;;;;5073147;28;20252;-71
2022/01/11 04:37:09;;;;;;;12.57;8.40;;;6.60;1.00;;;;;;5072820;28;20202;-72
2022/01/11 04:39:36;;;;;;;14.17;9.40;;;6.60;99.90;;;;;;5072917;28;20669;-74
2022/01/11 04:42:03;;;;;;;14.70;8.23;;;6.50;1.00;;;;;;5072608;28;20766;-73
2022/01/11 04:44:30;;;;;;;11.73;8.23;;;6.60;1.00;;;;;;5072548;28;20682;-73
2022/01/11 04:46:58;;;;;;;14.63;8.53;;;6.50;1.00;;;;;;5072635;28;20206;-74
2022/01/11 04:49:25;;;;;;;15.83;7.80;;;6.50;99.90;;;;;;5072871;28;20210;-74
2022/01/11 04:51:55;;;;;;;12.73;8.53;;;6.50;99.90;;;;;;5073194;28;20202;-75
2022/01/11 04:54:22;;;;;;;13.00;7.57;;;6.70;99.90;;;;;;5072666;28;20247;-75
2022/01/11 04:56:49;;;;;;;11.70;7.57;;;6.70;1.00;;;;;;5072542;28;20206;-74
2022/01/11 04:59:16;;;;;;;14.13;8.43;;;6.70;1.00;;;;;;5072185;28;20202;-73
2022/01/11 05:01:43;;;;;;;14.70;8.47;;;6.70;99.90;;;;;;5072594;28;20202;-73
2022/01/11 05:04:12;;;;;;;12.40;8.13;;;6.80;99.90;;;;;;5072082;28;20563;-73
2022/01/11 05:06:40;;;;;;;11.83;7.97;;;6.80;1.00;;;;;;5072414;28;20198;-76
2022/01/11 05:09:08;;;;;;;10.77;7.60;;;6.80;1.00;;;;;;5072238;28;20206;-74
2022/01/11 05:11:35;;;;;;;12.57;7.93;;;6.80;1.00;;;;;;5072412;28;20214;-74
2022/01/11 05:14:02;;;;;;;11.13;7.77;;;6.80;1.00;;;;;;5072058;28;20202;-74
2022/01/11 05:16:29;;;;;;;12.57;8.00;;;6.80;1.00;;;;;;5072309;28;20256;-75
2022/01/11 05:18:56;;;;;;;12.70;8.27;;;6.80;99.90;;;;;;5072377;28;20198;-74
2022/01/11 05:21:23;;;;;;;10.07;7.00;;;6.80;99.90;;;;;;5072391;28;20252;-72
2022/01/11 05:23:50;;;;;;;9.30;7.40;;;6.80;99.90;;;;;;5072319;28;20277;-75
2022/01/11 05:26:19;;;;;;;10.57;7.70;;;6.80;99.90;;;;;;5071704;28;20674;-72
2022/01/11 05:28:46;;;;;;;13.60;7.13;;;6.80;99.90;;;;;;5071414;28;20678;-74
2022/01/11 05:31:12;;;;;;;9.77;6.93;;;6.80;99.90;;;;;;5071361;28;20662;-74
2022/01/11 05:33:39;;;;;;;11.30;7.40;;;6.80;99.90;;;;;;5071466;28;20548;-74
2022/01/11 05:36:07;;;;;;;12.80;7.70;;;6.80;99.90;;;;;;5071222;28;20210;-74
2022/01/11 05:38:34;;;;;;;13.17;7.50;;;6.80;99.90;;;;;;5071750;28;20208;-74
2022/01/11 05:41:01;;;;;;;10.70;7.30;;;6.80;99.90;;;;;;5071244;28;20201;-74
2022/01/11 05:43:29;;;;;;;10.63;6.93;;;6.70;99.90;;;;;;5070987;28;20283;-74
2022/01/11 05:45:56;;;;;;;12.90;8.00;;;6.70;99.90;;;;;;5071183;28;20674;-75
2022/01/11 05:48:23;;;;;;;12.30;7.00;;;6.60;99.90;;;;;;5071644;28;20669;-74
2022/01/11 05:50:50;;;;;;;13.77;7.37;;;6.70;99.90;;;;;;5071430;28;20684;-74
2022/01/11 05:53:17;;;;;;;13.87;7.43;;;6.70;99.90;;;;;;5071009;28;20210;-75
2022/01/11 05:55:44;;;;;;;11.57;8.70;;;6.70;99.90;;;;;;5071200;28;20198;-74
2022/01/11 05:58:11;;;;;;;11.33;7.33;;;6.70;99.90;;;;;;5070957;28;20230;-74
2022/01/11 06:00:40;;;;;;;14.93;7.33;;;6.70;99.90;;;;;;5071491;28;20316;-71
2022/01/11 06:03:07;;;;;;;10.83;7.67;;;6.50;99.90;;;;;;5070854;28;20237;-74
2022/01/11 06:05:37;;;;;;;9.87;7.17;;;6.20;99.90;;;;;;5071511;28;20198;-72
2022/01/11 06:08:05;;;;;;;7.00;6.30;;;6.10;99.90;;;;;;5071003;28;20209;-72
2022/01/11 06:10:32;;;;;;;11.07;7.50;;;6.10;99.90;;;;;;5070980;28;20251;-72
2022/01/11 06:12:59;;;;;;;13.10;8.80;;;5.90;99.90;;;;;;5070871;28;20202;-72
2022/01/11 06:15:29;;;;;;;10.87;8.23;;;5.80;99.90;;;;;;5071131;28;20206;-74
2022/01/11 06:17:57;;;;;;;11.20;8.07;;;5.90;1.00;;;;;;5071028;28;20206;-73
2022/01/11 06:20:24;;;;;;;12.17;8.80;;;5.80;1.00;;;;;;5071752;28;20255;-75
2022/01/11 06:22:53;;;;;;;12.50;9.00;;;5.70;1.00;;;;;;5071371;28;20233;-76
2022/01/11 06:25:19;;;;;;;10.77;9.00;;;5.60;1.00;;;;;;5070608;28;20209;-72
2022/01/11 06:27:47;;;;;;;9.70;6.57;;;5.50;1.00;;;;;;5071027;28;20256;-73
2022/01/11 06:30:15;;;;;;;8.53;6.67;;;5.40;1.00;;;;;;5070712;28;20202;-74
2022/01/11 06:32:44;;;;;;;13.20;7.63;;;5.40;1.00;;;;;;5070936;28;20210;-72
2022/01/11 06:35:13;;;;;;;8.60;6.37;;;5.30;1.00;;;;;;5070690;28;20403;-73
2022/01/11 06:37:40;;;;;;;11.83;7.23;;;5.20;1.00;;;;;;5071051;28;20202;-74
2022/01/11 06:40:09;;;;;;;10.10;7.93;;;5.10;1.00;;;;;;5070326;28;20202;-75
2022/01/11 06:42:36;;;;;;;11.87;9.37;;;5.20;1.00;;;;;;5070736;28;20241;-76
2022/01/11 06:45:04;;;;;;;10.70;8.03;;;5.10;1.00;;;;;;5070464;28;20214;-74
2022/01/11 06:47:31;;;;;;;11.33;8.93;;;5.10;1.00;;;;;;5070831;28;20260;-74
2022/01/11 06:49:58;;;;;;;13.40;9.13;;;5.10;1.00;;;;;;5070635;28;20202;-75
2022/01/11 06:52:26;;;;;;;21.20;11.20;;;5.10;1.00;;;;;;5071135;28;20206;-75
2022/01/11 06:54:53;;;;;;;14.77;10.00;;;5.10;1.00;;;;;;5070852;28;20249;-74
2022/01/11 06:57:20;;;;;;;14.17;9.17;;;5.00;1.00;;;;;;5075640;28;20208;-76
2022/01/11 06:59:47;;;;;;;15.30;8.97;;;5.00;1.00;;;;;;5081770;28;20205;-75
2022/01/11 07:02:14;;;;;;;13.97;9.27;;;4.90;1.00;;;;;;5083418;28;20259;-75
2022/01/11 07:04:41;;;;;;;12.40;7.57;;;4.90;1.00;;;;;;5070687;28;20252;-73
2022/01/11 07:07:08;;;;;;;10.50;8.30;;;4.90;1.00;;;;;;5070259;28;20232;-73
2022/01/11 07:09:37;;;;;;;13.63;8.37;;;5.00;95.40;;;;;;5070277;28;20198;-74
2022/01/11 07:12:05;;;;;;;12.43;8.43;;;5.10;99.90;;;;;;5070444;28;20198;-75
2022/01/11 07:14:32;;;;;;;16.70;9.07;;;5.00;99.90;;;;;;5070852;28;20206;-76
2022/01/11 07:16:59;;;;;;;25.10;16.40;;;5.00;99.90;;;;;;5070356;28;20202;-76
2022/01/11 07:19:29;;;;;;;20.00;13.57;;;5.40;99.90;;;;;;5070607;28;20261;-77
2022/01/11 07:21:58;;;;;;;15.87;11.47;;;5.60;1.00;;;;;;5071006;28;20198;-76
2022/01/11 07:24:26;;;;;;;15.80;9.77;;;5.60;1.00;;;;;;5070492;28;20230;-76
2022/01/11 07:26:55;;;;;;;14.07;10.43;;;5.60;1.00;;;;;;5070481;28;20252;-76
2022/01/11 07:29:22;;;;;;;13.73;9.70;;;5.50;1.00;;;;;;5070925;28;20685;-76
2022/01/11 07:56:18;;;;;;;14.00;11.23;;;5.20;51.80;;;;;;5148054;27;20550;-78
2022/01/11 07:58:46;;;;;;;13.50;9.27;;;4.90;1.00;;;;;;5128809;27;20268;-72
2022/01/11 08:01:13;;;;;;;15.50;9.47;;;4.90;1.00;;;;;;5129353;27;20208;-75
2022/01/11 08:03:40;;;;;;;12.23;8.57;;;4.90;1.00;;;;;;5128369;27;20196;-75
2022/01/11 08:06:07;;;;;;;13.80;9.53;;;5.00;1.00;;;;;;5127584;27;20204;-76
2022/01/11 08:08:34;;;;;;;12.20;8.23;;;5.10;47.80;;;;;;5127685;27;20262;-77
2022/01/11 08:11:02;;;;;;;14.37;9.43;;;5.20;99.90;;;;;;5128841;27;20686;-76
2022/01/11 08:13:30;;;;;;;11.97;9.33;;;5.30;93.20;;;;;;5128714;27;20648;-77
2022/01/11 08:15:57;;;;;;;15.23;10.23;;;5.30;10.90;;;;;;5128572;27;20206;-79
2022/01/11 08:18:24;;;;;;;12.40;8.90;;;5.30;1.00;;;;;;5129236;27;20254;-79
2022/01/11 08:20:51;;;;;;;14.63;9.13;;;5.80;99.90;;;;;;5128401;27;20624;-77
2022/01/11 08:23:18;;;;;;;12.10;9.83;;;5.70;1.00;;;;;;5127565;27;20197;-78
2022/01/11 08:25:45;;;;;;;11.27;9.67;;;5.50;1.00;;;;;;5119901;27;20249;-78
2022/01/11 08:28:13;;;;;;;12.80;9.50;;;5.50;1.00;;;;;;5122090;27;20253;-78
2022/01/11 08:30:42;;;;;;;13.93;8.57;;;5.60;1.00;;;;;;5117284;27;20300;-77
2022/01/11 08:33:12;;;;;;;12.97;9.27;;;5.70;1.00;;;;;;5124989;28;21136;-77
2022/01/11 08:35:39;;;;;;;12.27;9.37;;;5.90;99.90;;;;;;5112140;28;20209;-77
2022/01/11 08:38:06;;;;;;;12.73;8.07;;;6.20;99.90;;;;;;5107161;28;20205;-77
2022/01/11 08:40:33;;;;;;;13.47;8.50;;;6.40;1.00;;;;;;5126879;27;20670;-77
2022/01/11 08:43:03;;;;;;;14.03;8.43;;;7.40;1.00;;;;;;5126451;27;20307;-78
2022/01/11 08:45:30;;;;;;;10.50;7.23;;;7.70;1.00;;;;;;5126531;28;20252;-78
2022/01/11 08:47:59;;;;;;;12.07;7.23;;;8.40;1.00;;;;;;5127769;27;20201;-77
2022/01/11 08:50:26;;;;;;;9.47;7.00;;;8.80;1.00;;;;;;5126598;27;20549;-78
2022/01/11 08:52:53;;;;;;;11.17;6.03;;;9.40;1.00;;;;;;5116192;28;20204;-78
2022/01/11 08:55:20;;;;;;;10.90;6.93;;;9.20;1.00;;;;;;5123737;27;20261;-79
2022/01/11 08:57:47;;;;;;;7.43;5.33;;;8.90;1.00;;;;;;5113036;28;20230;-78
2022/01/11 09:00:18;;;;;;;9.63;6.13;;;8.90;1.00;;;;;;5103414;28;20281;-79
2022/01/11 09:02:46;;;;;;;11.97;6.27;;;9.20;1.00;;;;;;5113076;28;20209;-76
2022/01/11 09:05:17;;;;;;;7.57;5.23;;;10.10;1.00;;;;;;5107189;28;20228;-83
2022/01/11 09:07:45;;;;;;;11.10;5.87;;;11.40;1.00;;;;;;5109560;28;20212;-80
2022/01/11 09:10:12;;;;;;;7.83;5.70;;;11.50;1.00;;;;;;5110713;28;20209;-84
2022/01/11 09:12:39;;;;;;;7.97;6.33;;;11.20;1.00;;;;;;5112929;28;20205;-81
2022/01/11 09:15:09;;;;;;;10.17;6.77;;;11.70;1.00;;;;;;5113294;28;20219;-81
2022/01/11 09:17:37;;;;;;;7.53;6.60;;;9.90;1.00;;;;;;5112582;28;20625;-75
2022/01/11 09:20:06;;;;;;;8.80;6.63;;;9.00;1.00;;;;;;5112971;28;20639;-75
2022/01/11 09:22:35;;;;;;;7.03;6.33;;;8.60;1.00;;;;;;5112853;28;20265;-77
2022/01/11 09:25:02;;;;;;;9.37;6.60;;;8.30;1.00;;;;;;5112698;28;20236;-79
2022/01/11 09:27:29;;;;;;;9.03;5.43;;;8.40;1.00;;;;;;5112225;28;20205;-78
2022/01/11 09:29:56;;;;;;;8.00;5.90;;;8.00;1.00;;;;;;5112572;28;20201;-79
2022/01/11 09:32:26;;;;;;;8.43;5.53;;;7.60;1.00;;;;;;5112908;28;20281;-77
2022/01/11 09:34:53;;;;;;;7.00;5.27;;;7.70;1.00;;;;;;5112208;28;20266;-77
2022/01/11 09:37:22;;;;;;;9.63;6.93;;;7.50;1.00;;;;;;5112163;28;20201;-78
2022/01/11 09:39:51;;;;;;;8.57;6.77;;;7.70;1.00;;;;;;5112655;28;20226;-78
2022/01/11 09:42:19;;;;;;;7.33;6.13;;;9.10;1.00;;;;;;5112678;28;20201;-78
2022/01/11 09:44:47;;;;;;;9.60;6.50;;;11.70;1.00;;;;;;5111894;28;20236;-78
2022/01/11 09:47:14;;;;;;;10.97;7.33;;;13.60;1.00;;;;;;5112450;28;20205;-78
2022/01/11 09:49:42;;;;;;;8.30;7.03;;;13.80;1.00;;;;;;5112489;28;20208;-78
2022/01/11 09:52:10;;;;;;;8.90;6.40;;;12.80;1.00;;;;;;5112581;28;20204;-78
2022/01/11 09:54:39;;;;;;;7.53;6.07;;;13.40;1.00;;;;;;5112212;28;20216;-79
2022/01/11 09:57:09;;;;;;;6.35;5.53;;;15.10;1.00;;;;;;5112051;28;20713;-79
2022/01/11 09:59:36;;;;;;;5.50;4.97;;;16.40;1.00;;;;;;5111731;28;20664;-79
2022/01/11 10:02:04;;;;;;;5.97;4.78;;;16.20;1.00;;;;;;5112337;28;20201;-77
2022/01/11 10:04:34;;;;;;;5.97;4.90;;;17.80;1.00;;;;;;5112280;28;20589;-80
2022/01/11 10:07:03;;;;;;;6.78;5.05;;;17.00;1.00;;;;;;5112271;28;20237;-78
2022/01/11 10:09:32;;;;;;;5.13;3.95;;;16.60;1.00;;;;;;5112617;28;20208;-78
2022/01/11 10:12:02;;;;;;;5.10;4.00;;;15.80;1.00;;;;;;5112669;28;20249;-77
2022/01/11 10:14:33;;;;;;;7.25;4.47;;;16.20;1.00;;;;;;5112660;28;20220;-75
2022/01/11 10:17:10;;;;;;;5.10;3.70;;;17.20;1.00;;;;;;5112839;28;20591;-76
2022/01/11 10:19:39;;;;;;;7.50;4.97;;;18.10;1.00;;;;;;5110897;28;20215;-78
2022/01/11 10:22:08;;;;;;;7.00;4.55;;;18.80;1.00;;;;;;5111196;28;20266;-77
2022/01/11 10:24:39;;;;;;;9.30;6.93;;;19.40;1.00;;;;;;5110660;27;20224;-76
2022/01/11 10:27:08;;;;;;;9.00;5.82;;;18.90;1.00;;;;;;5110340;28;20205;-76
2022/01/11 10:29:40;;;;;;;7.53;4.53;;;16.30;1.00;;;;;;5110871;28;20299;-75
2022/01/11 10:32:17;;;;;;;6.28;3.83;;;12.50;1.00;;;;;;5112389;28;20201;-76
2022/01/11 10:34:48;;;;;;;4.13;3.72;;;11.40;1.00;;;;;;5111974;28;20196;-76
2022/01/11 10:37:17;;;;;;;3.72;2.70;;;12.00;1.00;;;;;;5112204;28;20292;-76
2022/01/11 10:39:45;;;;;;;3.90;2.85;;;13.60;1.00;;;;;;5111857;28;20216;-76
2022/01/11 10:42:28;;;;;;;4.28;3.25;;;15.40;1.00;;;;;;5112161;28;20208;-76
2022/01/11 10:44:59;;;;;;;3.50;2.92;;;17.50;1.00;;;;;;5111659;28;20315;-75
2022/01/11 10:47:29;;;;;;;6.15;3.60;;;18.00;1.00;;;;;;5112094;28;20243;-76
2022/01/11 10:49:59;;;;;;;4.20;3.22;;;16.70;1.00;;;;;;5111516;28;20201;-77
2022/01/11 10:52:28;;;;;;;3.30;2.70;;;16.40;1.00;;;;;;5111976;28;20205;-77
2022/01/11 10:54:55;;;;;;;4.40;2.83;;;16.10;1.00;;;;;;5111301;28;20238;-75
2022/01/11 10:57:26;;;;;;;7.15;3.35;;;15.00;1.00;;;;;;5106028;28;20205;-75
2022/01/11 11:00:20;;;;;;;3.03;2.63;;;11.30;1.00;;;;;;5110176;28;20209;-76
2022/01/11 11:02:57;;;;;;;3.78;2.75;;;9.80;1.00;;;;;;5099606;28;20291;-74
2022/01/11 11:05:31;;;;;;;3.67;2.53;;;9.20;1.00;;;;;;5107904;28;20220;-76
2022/01/11 11:08:10;;;;;;;2.60;2.40;;;8.80;1.00;;;;;;5110217;28;20205;-75
2022/01/11 11:10:49;;;;;;;3.50;2.60;;;8.70;1.00;;;;;;5108602;28;20197;-75
2022/01/11 11:13:24;;;;;;;2.83;2.33;;;8.70;1.00;;;;;;5109146;28;20205;-76
2022/01/11 11:15:54;;;;;;;6.80;3.10;;;8.70;1.00;;;;;;5107511;28;20238;-75
2022/01/11 11:18:30;;;;;;;4.70;2.53;;;8.70;1.00;;;;;;5108798;28;20205;-75
2022/01/11 11:21:11;;;;;;;1.70;1.60;;;8.70;1.00;;;;;;5109417;28;20668;-74
2022/01/11 11:23:38;;;;;;;3.90;3.20;;;8.70;1.00;;;;;;5110278;28;20208;-74
2022/01/11 11:26:05;;;;;;;3.33;1.90;;;8.60;1.00;;;;;;5111143;28;20289;-74
2022/01/11 11:28:32;;;;;;;5.77;1.43;;;8.60;1.00;;;;;;5110192;28;20635;-74
2022/01/11 11:31:01;;;;;;;4.57;2.17;;;8.70;1.00;;;;;;5107606;28;20274;-75
2022/01/11 11:33:30;;;;;;;2.63;1.50;;;8.50;1.00;;;;;;5110873;28;20209;-75
2022/01/11 11:35:58;;;;;;;4.73;1.90;;;8.50;1.00;;;;;;5111330;28;20236;-76
2022/01/11 11:38:31;;;;;;;5.57;2.43;;;8.50;1.00;;;;;;5111268;28;20215;-75
2022/01/11 11:41:02;;;;;;;4.63;1.60;;;8.60;1.00;;;;;;5096492;28;20611;-75
2022/01/11 11:43:30;;;;;;;2.17;1.83;;;8.70;1.00;;;;;;5110801;28;20243;-76
2022/01/11 11:45:57;;;;;;;6.83;3.23;;;8.70;1.00;;;;;;5096828;28;20250;-75
2022/01/11 11:48:29;;;;;;;4.30;3.27;;;8.70;1.00;;;;;;5111150;28;20294;-74
2022/01/11 11:50:58;;;;;;;4.50;3.00;;;8.80;1.00;;;;;;5110982;28;20683;-74
2022/01/11 11:53:29;;;;;;;4.13;2.97;;;8.80;1.00;;;;;;5111229;28;20201;-75
2022/01/11 11:56:20;;;;;;;3.90;2.20;;;8.70;1.00;;;;;;5110537;28;20220;-75
2022/01/11 11:58:50;;;;;;;5.27;3.00;;;8.70;1.00;;;;;;5109414;27;20211;-74
2022/01/11 12:01:31;;;;;;;2.63;1.63;;;8.70;1.00;;;;;;5111027;28;20269;-76
2022/01/11 12:03:59;;;;;;;3.27;2.23;;;8.80;1.00;;;;;;5110643;28;20291;-75
2022/01/11 12:06:28;;;;;;;3.20;1.97;;;8.80;1.00;;;;;;5110762;28;20244;-77
2022/01/11 12:09:03;;;;;;;3.43;2.00;;;8.90;1.00;;;;;;5103297;28;20555;-76
2022/01/11 12:11:36;;;;;;;7.43;2.43;;;8.80;1.00;;;;;;5109460;28;20555;-76
2022/01/11 12:14:04;;;;;;;2.40;1.57;;;8.80;1.00;;;;;;5109355;28;20209;-77
2022/01/11 12:16:42;;;;;;;1.40;1.30;;;8.80;1.00;;;;;;5109297;28;20213;-76
2022/01/11 12:19:29;;;;;;;3.53;1.93;;;8.70;1.00;;;;;;5109358;28;20196;-76
2022/01/11 12:22:18;;;;;;;4.00;1.93;;;8.80;1.00;;;;;;5108727;28;20205;-76
2022/01/11 12:24:46;;;;;;;2.23;2.03;;;9.10;1.00;;;;;;5108849;28;20295;-76
2022/01/11 12:27:15;;;;;;;3.00;1.80;;;9.30;1.00;;;;;;5109080;28;20898;-76
2022/01/11 12:29:57;;;;;;;2.80;2.17;;;9.20;1.00;;;;;;5110701;28;20205;-76
2022/01/11 12:32:26;;;;;;;3.63;2.10;;;9.30;1.00;;;;;;5114496;28;20205;-75
2022/01/11 12:34:57;;;;;;;2.57;2.27;;;9.20;1.00;;;;;;5114736;28;20205;-74
2022/01/11 12:37:31;;;;;;;3.70;2.47;;;9.20;1.00;;;;;;5114563;28;20720;-77
2022/01/11 12:40:30;;;;;;;3.87;3.00;;;9.00;1.00;;;;;;5114895;28;20246;-77
2022/01/11 12:43:02;;;;;;;2.50;1.57;;;9.10;1.00;;;;;;5114480;28;20226;-74
2022/01/11 12:45:59;;;;;;;2.03;1.80;;;9.00;1.00;;;;;;5111907;28;20289;-75
2022/01/11 12:49:01;;;;;;;3.03;1.53;;;9.10;1.00;;;;;;5110158;28;20321;-74
2022/01/11 12:51:37;;;;;;;6.83;2.37;;;9.10;1.00;;;;;;5111850;28;20565;-74
2022/01/11 12:54:28;;;;;;;3.67;2.07;;;9.10;1.00;;;;;;5112848;28;20216;-74
2022/01/11 12:56:57;;;;;;;2.73;2.30;;;9.20;1.00;;;;;;5102717;28;20201;-75
2022/01/11 12:59:28;;;;;;;6.83;3.07;;;9.20;1.00;;;;;;5111843;28;20219;-75
2022/01/11 13:02:07;;;;;;;3.93;2.40;;;9.20;1.00;;;;;;5109788;28;20589;-75
2022/01/11 13:04:39;;;;;;;4.30;2.57;;;9.30;1.00;;;;;;5111428;28;20215;-75
2022/01/11 13:07:19;;;;;;;3.63;2.00;;;9.10;1.00;;;;;;5111336;28;20234;-75
2022/01/11 13:09:47;;;;;;;2.43;1.93;;;9.10;1.00;;;;;;5109918;28;20572;-74
2022/01/11 13:12:26;;;;;;;5.23;2.10;;;9.00;1.00;;;;;;5111124;28;20204;-75
2022/01/11 13:15:04;;;;;;;9.53;3.73;;;9.10;1.00;;;;;;5110467;28;20281;-74
2022/01/11 13:17:31;;;;;;;3.90;2.03;;;9.00;1.00;;;;;;5111888;28;20205;-74
2022/01/11 13:20:08;;;;;;;3.53;1.93;;;9.00;1.00;;;;;;5110988;28;20748;-74
2022/01/11 13:22:53;;;;;;;4.40;2.37;;;9.00;1.00;;;;;;5110764;28;20203;-74
2022/01/11 13:25:35;;;;;;;3.40;2.20;;;8.90;1.00;;;;;;5111921;28;20227;-76
2022/01/11 13:28:02;;;;;;;2.17;1.90;;;9.00;1.00;;;;;;5111900;28;20611;-75
2022/01/11 13:30:35;;;;;;;3.60;2.27;;;9.00;1.00;;;;;;5111918;28;20261;-76
2022/01/11 13:33:02;;;;;;;3.53;2.00;;;9.10;1.00;;;;;;5111867;28;20201;-74